sensor_id;sensor_type;location;lat;lon;timestamp;pressure;altitude;pressure_sealevel;temperature;humidity
28008;BME280;15333;50.010;20.020;2023-11-19T00:00:50;99387.09;;;1.46;87.77
28008;BME280;15333;50.010;20.020;2023-11-19T00:04:11;99379.56;;;1.34;88.29
28008;BME280;15333;50.010;20.020;2023-11-19T00:07:12;99374.19;;;1.37;88.54
28008;BME280;15333;50.010;20.020;2023-11-19T00:10:15;99376.50;;;1.18;88.30
28008;BME280;15333;50.010;20.020;2023-11-19T00:13:22;99380.06;;;1.15;87.57
28008;BME280;15333;50.010;20.020;2023-11-19T00:16:23;99380.03;;;1.17;87.58
28008;BME280;15333;50.010;20.020;2023-11-19T00:19:24;99382.72;;;1.15;87.42
28008;BME280;15333;50.010;20.020;2023-11-19T00:22:26;99369.75;;;1.39;87.38
28008;BME280;15333;50.010;20.020;2023-11-19T00:25:28;99370.81;;;1.32;87.51
28008;BME280;15333;50.010;20.020;2023-11-19T00:28:29;99371.09;;;1.23;87.26
28008;BME280;15333;50.010;20.020;2023-11-19T00:31:30;99375.59;;;1.19;87.54
28008;BME280;15333;50.010;20.020;2023-11-19T00:34:32;99362.00;;;1.33;86.89
28008;BME280;15333;50.010;20.020;2023-11-19T00:37:33;99351.19;;;1.12;87.34
28008;BME280;15333;50.010;20.020;2023-11-19T00:40:34;99350.78;;;1.26;88.06
28008;BME280;15333;50.010;20.020;2023-11-19T00:43:35;99345.50;;;1.26;87.92
28008;BME280;15333;50.010;20.020;2023-11-19T00:46:36;99335.09;;;1.22;87.50
28008;BME280;15333;50.010;20.020;2023-11-19T00:49:37;99335.91;;;1.24;87.56
28008;BME280;15333;50.010;20.020;2023-11-19T00:52:38;99328.22;;;1.16;87.83
28008;BME280;15333;50.010;20.020;2023-11-19T00:55:40;99320.97;;;1.24;87.06
28008;BME280;15333;50.010;20.020;2023-11-19T00:58:40;99317.41;;;1.25;87.24
28008;BME280;15333;50.010;20.020;2023-11-19T01:01:41;99308.41;;;1.32;87.85
28008;BME280;15333;50.010;20.020;2023-11-19T01:04:42;99309.31;;;1.31;88.18
28008;BME280;15333;50.010;20.020;2023-11-19T01:07:43;99311.34;;;1.22;87.80
28008;BME280;15333;50.010;20.020;2023-11-19T01:10:44;99304.47;;;1.17;88.04
28008;BME280;15333;50.010;20.020;2023-11-19T01:13:45;99301.03;;;1.43;87.30
28008;BME280;15333;50.010;20.020;2023-11-19T01:16:46;99301.63;;;1.53;87.97
28008;BME280;15333;50.010;20.020;2023-11-19T01:19:47;99295.63;;;1.48;88.29
28008;BME280;15333;50.010;20.020;2023-11-19T01:22:48;99304.97;;;1.58;89.02
28008;BME280;15333;50.010;20.020;2023-11-19T01:25:49;99299.25;;;1.44;88.78
28008;BME280;15333;50.010;20.020;2023-11-19T01:28:50;99298.28;;;1.48;88.97
28008;BME280;15333;50.010;20.020;2023-11-19T01:31:53;99305.94;;;1.55;88.74
28008;BME280;15333;50.010;20.020;2023-11-19T01:34:54;99299.50;;;1.64;89.68
28008;BME280;15333;50.010;20.020;2023-11-19T01:37:55;99293.53;;;1.30;89.30
28008;BME280;15333;50.010;20.020;2023-11-19T01:40:56;99293.91;;;1.17;89.06
28008;BME280;15333;50.010;20.020;2023-11-19T01:43:58;99292.66;;;1.29;88.05
28008;BME280;15333;50.010;20.020;2023-11-19T01:46:59;99289.28;;;1.26;88.42
28008;BME280;15333;50.010;20.020;2023-11-19T01:50:01;99299.25;;;1.14;88.63
28008;BME280;15333;50.010;20.020;2023-11-19T01:53:07;99281.94;;;1.35;88.72
28008;BME280;15333;50.010;20.020;2023-11-19T01:56:09;99279.38;;;1.34;88.35
28008;BME280;15333;50.010;20.020;2023-11-19T01:59:12;99277.44;;;1.39;88.70
28008;BME280;15333;50.010;20.020;2023-11-19T02:02:14;99270.91;;;1.50;88.52
28008;BME280;15333;50.010;20.020;2023-11-19T02:05:15;99251.81;;;1.42;89.53
28008;BME280;15333;50.010;20.020;2023-11-19T02:08:17;99252.41;;;1.52;89.72
28008;BME280;15333;50.010;20.020;2023-11-19T02:11:18;99257.81;;;1.49;90.07
28008;BME280;15333;50.010;20.020;2023-11-19T02:14:24;99249.31;;;1.39;90.15
28008;BME280;15333;50.010;20.020;2023-11-19T02:17:27;99244.91;;;1.40;89.62
28008;BME280;15333;50.010;20.020;2023-11-19T02:20:29;99247.06;;;1.55;89.33
28008;BME280;15333;50.010;20.020;2023-11-19T02:23:30;99234.66;;;1.57;89.70
28008;BME280;15333;50.010;20.020;2023-11-19T02:26:47;99231.03;;;1.33;90.15
28008;BME280;15333;50.010;20.020;2023-11-19T02:29:52;99213.31;;;1.10;89.51
28008;BME280;15333;50.010;20.020;2023-11-19T02:35:57;99185.94;;;1.14;89.29
28008;BME280;15333;50.010;20.020;2023-11-19T02:38:59;99175.91;;;1.26;88.95
28008;BME280;15333;50.010;20.020;2023-11-19T02:42:00;99180.03;;;1.34;88.93
28008;BME280;15333;50.010;20.020;2023-11-19T02:45:01;99169.22;;;1.15;88.79
28008;BME280;15333;50.010;20.020;2023-11-19T02:48:02;99159.44;;;1.19;89.14
28008;BME280;15333;50.010;20.020;2023-11-19T02:51:04;99151.66;;;1.14;88.60
28008;BME280;15333;50.010;20.020;2023-11-19T02:54:05;99161.09;;;1.22;88.79
28008;BME280;15333;50.010;20.020;2023-11-19T02:57:06;99159.09;;;1.02;89.07
28008;BME280;15333;50.010;20.020;2023-11-19T03:00:09;99146.78;;;1.02;89.27
28008;BME280;15333;50.010;20.020;2023-11-19T03:03:13;99147.63;;;1.04;88.73
28008;BME280;15333;50.010;20.020;2023-11-19T03:06:22;99137.91;;;1.06;88.99
28008;BME280;15333;50.010;20.020;2023-11-19T03:09:23;99132.50;;;1.09;88.91
28008;BME280;15333;50.010;20.020;2023-11-19T03:12:25;99113.16;;;1.10;89.66
28008;BME280;15333;50.010;20.020;2023-11-19T03:15:27;99099.34;;;1.02;89.40
28008;BME280;15333;50.010;20.020;2023-11-19T03:18:27;99106.44;;;1.00;88.00
28008;BME280;15333;50.010;20.020;2023-11-19T03:21:29;99096.88;;;0.98;88.61
28008;BME280;15333;50.010;20.020;2023-11-19T03:24:31;99092.53;;;0.97;88.66
28008;BME280;15333;50.010;20.020;2023-11-19T03:27:33;99094.28;;;0.96;88.36
28008;BME280;15333;50.010;20.020;2023-11-19T03:30:35;99092.69;;;0.92;87.24
28008;BME280;15333;50.010;20.020;2023-11-19T03:33:36;99088.19;;;0.94;87.72
28008;BME280;15333;50.010;20.020;2023-11-19T03:36:37;99071.47;;;0.95;87.56
28008;BME280;15333;50.010;20.020;2023-11-19T03:39:38;99076.75;;;0.95;88.04
28008;BME280;15333;50.010;20.020;2023-11-19T03:42:39;99072.44;;;0.93;87.49
28008;BME280;15333;50.010;20.020;2023-11-19T03:45:40;99075.03;;;0.94;87.56
28008;BME280;15333;50.010;20.020;2023-11-19T03:48:42;99078.56;;;0.93;87.35
28008;BME280;15333;50.010;20.020;2023-11-19T03:51:44;99078.69;;;0.90;87.59
28008;BME280;15333;50.010;20.020;2023-11-19T03:54:44;99074.31;;;0.89;87.74
28008;BME280;15333;50.010;20.020;2023-11-19T03:57:47;99055.97;;;0.86;87.58
28008;BME280;15333;50.010;20.020;2023-11-19T04:00:49;99032.88;;;0.94;87.65
28008;BME280;15333;50.010;20.020;2023-11-19T04:03:50;99037.53;;;0.86;87.37
28008;BME280;15333;50.010;20.020;2023-11-19T04:06:50;99030.69;;;0.81;87.23
28008;BME280;15333;50.010;20.020;2023-11-19T04:09:51;99015.88;;;0.78;88.22
28008;BME280;15333;50.010;20.020;2023-11-19T04:12:52;99018.34;;;0.83;87.76
28008;BME280;15333;50.010;20.020;2023-11-19T04:15:53;99028.09;;;0.79;87.75
28008;BME280;15333;50.010;20.020;2023-11-19T04:18:53;99030.72;;;0.79;87.27
28008;BME280;15333;50.010;20.020;2023-11-19T04:21:54;99016.56;;;0.83;86.99
28008;BME280;15333;50.010;20.020;2023-11-19T04:24:55;99007.13;;;0.76;87.63
28008;BME280;15333;50.010;20.020;2023-11-19T04:27:57;99001.97;;;0.73;86.76
28008;BME280;15333;50.010;20.020;2023-11-19T04:30:58;98998.34;;;0.77;86.83
28008;BME280;15333;50.010;20.020;2023-11-19T04:33:59;98991.34;;;0.76;87.17
28008;BME280;15333;50.010;20.020;2023-11-19T04:37:01;98994.00;;;0.74;86.71
28008;BME280;15333;50.010;20.020;2023-11-19T04:40:03;98985.38;;;0.71;86.74
28008;BME280;15333;50.010;20.020;2023-11-19T04:43:04;98989.69;;;0.72;86.50
28008;BME280;15333;50.010;20.020;2023-11-19T04:46:05;98981.75;;;0.73;85.97
28008;BME280;15333;50.010;20.020;2023-11-19T04:49:06;98975.41;;;0.79;84.73
28008;BME280;15333;50.010;20.020;2023-11-19T04:52:07;98960.44;;;0.81;84.49
28008;BME280;15333;50.010;20.020;2023-11-19T04:55:08;98956.97;;;0.79;84.88
28008;BME280;15333;50.010;20.020;2023-11-19T04:58:12;98957.03;;;0.77;85.18
28008;BME280;15333;50.010;20.020;2023-11-19T05:01:14;98943.81;;;0.79;84.23
28008;BME280;15333;50.010;20.020;2023-11-19T05:04:17;98954.25;;;0.82;84.70
28008;BME280;15333;50.010;20.020;2023-11-19T05:07:19;98957.78;;;0.81;84.68
28008;BME280;15333;50.010;20.020;2023-11-19T05:10:20;98957.69;;;0.84;84.08
28008;BME280;15333;50.010;20.020;2023-11-19T05:13:21;98952.53;;;0.81;84.25
28008;BME280;15333;50.010;20.020;2023-11-19T05:16:22;98943.63;;;0.85;84.30
28008;BME280;15333;50.010;20.020;2023-11-19T05:19:22;98950.78;;;0.80;85.20
28008;BME280;15333;50.010;20.020;2023-11-19T05:22:23;98944.88;;;0.73;85.52
28008;BME280;15333;50.010;20.020;2023-11-19T05:25:24;98953.09;;;0.91;84.62
28008;BME280;15333;50.010;20.020;2023-11-19T05:28:25;98951.44;;;0.87;85.32
28008;BME280;15333;50.010;20.020;2023-11-19T05:31:26;98947.47;;;0.75;84.99
28008;BME280;15333;50.010;20.020;2023-11-19T05:34:27;98949.19;;;0.76;84.68
28008;BME280;15333;50.010;20.020;2023-11-19T05:37:28;98943.94;;;0.76;84.25
28008;BME280;15333;50.010;20.020;2023-11-19T05:40:29;98943.16;;;0.72;84.73
28008;BME280;15333;50.010;20.020;2023-11-19T05:43:29;98948.50;;;0.71;84.15
28008;BME280;15333;50.010;20.020;2023-11-19T05:46:30;98951.13;;;0.71;84.75
28008;BME280;15333;50.010;20.020;2023-11-19T05:49:31;98938.94;;;0.67;84.77
28008;BME280;15333;50.010;20.020;2023-11-19T05:52:32;98925.75;;;0.68;84.11
28008;BME280;15333;50.010;20.020;2023-11-19T05:55:34;98922.94;;;0.73;85.64
28008;BME280;15333;50.010;20.020;2023-11-19T05:58:35;98908.81;;;0.75;84.71
28008;BME280;15333;50.010;20.020;2023-11-19T06:01:36;98900.41;;;0.64;85.94
28008;BME280;15333;50.010;20.020;2023-11-19T06:04:37;98902.31;;;0.61;85.05
28008;BME280;15333;50.010;20.020;2023-11-19T06:07:38;98901.69;;;0.53;85.47
28008;BME280;15333;50.010;20.020;2023-11-19T06:10:44;98894.09;;;0.44;84.56
28008;BME280;15333;50.010;20.020;2023-11-19T06:13:46;98883.38;;;0.50;84.46
28008;BME280;15333;50.010;20.020;2023-11-19T06:16:48;98897.25;;;0.55;84.60
28008;BME280;15333;50.010;20.020;2023-11-19T06:19:49;98902.50;;;0.55;84.39
28008;BME280;15333;50.010;20.020;2023-11-19T06:22:50;98903.38;;;0.55;83.79
28008;BME280;15333;50.010;20.020;2023-11-19T06:25:50;98897.94;;;0.60;83.75
28008;BME280;15333;50.010;20.020;2023-11-19T06:28:51;98890.59;;;0.69;84.10
28008;BME280;15333;50.010;20.020;2023-11-19T06:31:52;98899.19;;;0.74;84.13
28008;BME280;15333;50.010;20.020;2023-11-19T06:34:53;98898.34;;;0.74;84.30
28008;BME280;15333;50.010;20.020;2023-11-19T06:37:54;98899.97;;;0.78;84.00
28008;BME280;15333;50.010;20.020;2023-11-19T06:40:55;98894.69;;;0.78;83.30
28008;BME280;15333;50.010;20.020;2023-11-19T06:43:56;98891.03;;;0.82;83.12
28008;BME280;15333;50.010;20.020;2023-11-19T06:46:57;98901.25;;;0.91;83.88
28008;BME280;15333;50.010;20.020;2023-11-19T06:49:58;98897.34;;;1.01;83.39
28008;BME280;15333;50.010;20.020;2023-11-19T06:52:59;98890.31;;;1.02;84.02
28008;BME280;15333;50.010;20.020;2023-11-19T06:56:00;98885.00;;;1.03;85.02
28008;BME280;15333;50.010;20.020;2023-11-19T06:59:01;98877.78;;;1.08;85.82
28008;BME280;15333;50.010;20.020;2023-11-19T07:02:02;98873.16;;;1.15;87.01
28008;BME280;15333;50.010;20.020;2023-11-19T07:05:03;98862.69;;;1.13;87.92
28008;BME280;15333;50.010;20.020;2023-11-19T07:08:08;98859.69;;;1.23;87.67
28008;BME280;15333;50.010;20.020;2023-11-19T07:11:09;98843.63;;;1.29;88.56
28008;BME280;15333;50.010;20.020;2023-11-19T07:14:10;98845.03;;;1.39;89.43
28008;BME280;15333;50.010;20.020;2023-11-19T07:17:12;98844.84;;;1.43;89.86
28008;BME280;15333;50.010;20.020;2023-11-19T07:20:12;98832.28;;;1.50;90.13
28008;BME280;15333;50.010;20.020;2023-11-19T07:23:15;98830.34;;;1.55;90.89
28008;BME280;15333;50.010;20.020;2023-11-19T07:26:17;98823.78;;;1.65;91.22
28008;BME280;15333;50.010;20.020;2023-11-19T07:29:18;98804.09;;;1.74;91.91
28008;BME280;15333;50.010;20.020;2023-11-19T07:32:19;98797.09;;;1.73;91.57
28008;BME280;15333;50.010;20.020;2023-11-19T07:35:20;98802.97;;;1.79;91.85
28008;BME280;15333;50.010;20.020;2023-11-19T07:38:20;98793.13;;;1.84;91.94
28008;BME280;15333;50.010;20.020;2023-11-19T07:41:21;98804.34;;;1.89;91.44
28008;BME280;15333;50.010;20.020;2023-11-19T07:44:22;98809.38;;;1.95;91.46
28008;BME280;15333;50.010;20.020;2023-11-19T07:47:23;98833.97;;;2.18;91.37
28008;BME280;15333;50.010;20.020;2023-11-19T07:50:23;98831.69;;;2.09;91.77
28008;BME280;15333;50.010;20.020;2023-11-19T07:53:26;98832.31;;;2.15;91.45
28008;BME280;15333;50.010;20.020;2023-11-19T07:56:26;98815.50;;;2.18;91.38
28008;BME280;15333;50.010;20.020;2023-11-19T07:59:28;98798.16;;;2.32;91.68
28008;BME280;15333;50.010;20.020;2023-11-19T08:02:28;98790.28;;;2.31;91.20
28008;BME280;15333;50.010;20.020;2023-11-19T08:05:30;98791.94;;;2.54;90.77
28008;BME280;15333;50.010;20.020;2023-11-19T08:08:31;98783.69;;;2.61;91.07
28008;BME280;15333;50.010;20.020;2023-11-19T08:11:34;98780.25;;;2.59;90.79
28008;BME280;15333;50.010;20.020;2023-11-19T08:14:35;98773.47;;;2.93;89.92
28008;BME280;15333;50.010;20.020;2023-11-19T08:17:36;98768.19;;;2.93;89.49
28008;BME280;15333;50.010;20.020;2023-11-19T08:20:37;98770.69;;;2.96;89.61
28008;BME280;15333;50.010;20.020;2023-11-19T08:23:38;98752.47;;;2.90;90.15
28008;BME280;15333;50.010;20.020;2023-11-19T08:26:39;98753.84;;;3.17;89.20
28008;BME280;15333;50.010;20.020;2023-11-19T08:29:40;98748.69;;;3.14;89.54
28008;BME280;15333;50.010;20.020;2023-11-19T08:32:40;98735.94;;;3.05;88.55
28008;BME280;15333;50.010;20.020;2023-11-19T08:35:42;98726.97;;;3.07;88.23
28008;BME280;15333;50.010;20.020;2023-11-19T08:38:42;98721.47;;;3.31;87.91
28008;BME280;15333;50.010;20.020;2023-11-19T08:41:43;98735.31;;;3.54;88.21
28008;BME280;15333;50.010;20.020;2023-11-19T08:44:48;98740.00;;;3.12;88.32
28008;BME280;15333;50.010;20.020;2023-11-19T08:47:51;98739.66;;;3.20;87.89
28008;BME280;15333;50.010;20.020;2023-11-19T08:50:51;98740.47;;;3.20;87.14
28008;BME280;15333;50.010;20.020;2023-11-19T08:53:52;98732.91;;;3.31;87.84
28008;BME280;15333;50.010;20.020;2023-11-19T08:56:53;98722.16;;;3.34;87.72
28008;BME280;15333;50.010;20.020;2023-11-19T08:59:54;98724.34;;;3.26;87.19
28008;BME280;15333;50.010;20.020;2023-11-19T09:02:55;98726.34;;;3.02;86.61
28008;BME280;15333;50.010;20.020;2023-11-19T09:05:56;98720.59;;;2.93;87.56
28008;BME280;15333;50.010;20.020;2023-11-19T09:08:56;98719.38;;;3.37;86.95
28008;BME280;15333;50.010;20.020;2023-11-19T09:12:02;98713.06;;;3.59;86.92
28008;BME280;15333;50.010;20.020;2023-11-19T09:15:04;98707.19;;;3.88;86.41
28008;BME280;15333;50.010;20.020;2023-11-19T09:18:05;98714.91;;;3.92;86.65
28008;BME280;15333;50.010;20.020;2023-11-19T09:21:06;98700.59;;;3.97;86.41
28008;BME280;15333;50.010;20.020;2023-11-19T09:24:07;98695.69;;;3.89;86.12
28008;BME280;15333;50.010;20.020;2023-11-19T09:27:08;98682.72;;;3.66;85.94
28008;BME280;15333;50.010;20.020;2023-11-19T09:30:09;98667.31;;;3.74;85.30
28008;BME280;15333;50.010;20.020;2023-11-19T09:33:10;98660.72;;;3.82;85.86
28008;BME280;15333;50.010;20.020;2023-11-19T09:36:14;98651.13;;;3.80;85.95
28008;BME280;15333;50.010;20.020;2023-11-19T09:39:17;98652.69;;;3.84;85.44
28008;BME280;15333;50.010;20.020;2023-11-19T09:42:19;98636.97;;;3.81;85.06
28008;BME280;15333;50.010;20.020;2023-11-19T09:45:20;98648.16;;;3.86;85.47
28008;BME280;15333;50.010;20.020;2023-11-19T09:48:24;98631.03;;;3.93;85.66
28008;BME280;15333;50.010;20.020;2023-11-19T09:51:25;98637.72;;;4.00;84.54
28008;BME280;15333;50.010;20.020;2023-11-19T09:54:27;98629.81;;;3.66;85.38
28008;BME280;15333;50.010;20.020;2023-11-19T09:57:29;98621.38;;;3.58;85.41
28008;BME280;15333;50.010;20.020;2023-11-19T10:00:31;98627.94;;;3.85;85.00
28008;BME280;15333;50.010;20.020;2023-11-19T10:03:34;98624.75;;;4.28;84.85
28008;BME280;15333;50.010;20.020;2023-11-19T10:06:41;98621.78;;;4.34;85.31
28008;BME280;15333;50.010;20.020;2023-11-19T10:09:42;98621.63;;;4.38;84.11
28008;BME280;15333;50.010;20.020;2023-11-19T10:12:47;98611.91;;;4.38;84.06
28008;BME280;15333;50.010;20.020;2023-11-19T10:15:49;98604.97;;;3.85;84.74
28008;BME280;15333;50.010;20.020;2023-11-19T10:18:50;98588.81;;;4.07;84.57
28008;BME280;15333;50.010;20.020;2023-11-19T10:21:52;98589.66;;;4.41;84.77
28008;BME280;15333;50.010;20.020;2023-11-19T10:24:53;98577.78;;;4.32;85.47
28008;BME280;15333;50.010;20.020;2023-11-19T10:27:55;98571.91;;;4.58;85.55
28008;BME280;15333;50.010;20.020;2023-11-19T10:30:56;98560.63;;;4.39;87.84
28008;BME280;15333;50.010;20.020;2023-11-19T10:33:57;98566.63;;;4.58;88.78
28008;BME280;15333;50.010;20.020;2023-11-19T10:36:58;98554.56;;;4.53;91.42
28008;BME280;15333;50.010;20.020;2023-11-19T10:39:58;98549.72;;;4.61;94.04
28008;BME280;15333;50.010;20.020;2023-11-19T10:43:03;98538.72;;;4.98;96.75
28008;BME280;15333;50.010;20.020;2023-11-19T10:46:11;98540.28;;;4.71;99.93
28008;BME280;15333;50.010;20.020;2023-11-19T10:49:13;98524.72;;;4.96;100.00
28008;BME280;15333;50.010;20.020;2023-11-19T10:52:18;98520.34;;;4.95;100.00
28008;BME280;15333;50.010;20.020;2023-11-19T10:55:27;98506.25;;;5.25;100.00
28008;BME280;15333;50.010;20.020;2023-11-19T10:58:28;98485.16;;;5.07;100.00
28008;BME280;15333;50.010;20.020;2023-11-19T11:01:45;98478.16;;;4.91;100.00
28008;BME280;15333;50.010;20.020;2023-11-19T11:04:49;98477.66;;;4.84;100.00
28008;BME280;15333;50.010;20.020;2023-11-19T11:07:51;98483.59;;;4.89;100.00
28008;BME280;15333;50.010;20.020;2023-11-19T11:10:54;98477.97;;;5.09;100.00
28008;BME280;15333;50.010;20.020;2023-11-19T11:13:56;98462.25;;;4.91;100.00
28008;BME280;15333;50.010;20.020;2023-11-19T11:17:02;98452.81;;;4.71;100.00
28008;BME280;15333;50.010;20.020;2023-11-19T11:20:04;98448.44;;;4.70;100.00
28008;BME280;15333;50.010;20.020;2023-11-19T11:23:14;98437.31;;;4.79;100.00
28008;BME280;15333;50.010;20.020;2023-11-19T11:33:32;98422.88;;;5.29;100.00
28008;BME280;15333;50.010;20.020;2023-11-19T11:36:50;98428.41;;;5.40;100.00
28008;BME280;15333;50.010;20.020;2023-11-19T11:39:57;98412.81;;;5.20;100.00
28008;BME280;15333;50.010;20.020;2023-11-19T11:42:59;98408.28;;;5.22;100.00
28008;BME280;15333;50.010;20.020;2023-11-19T11:46:00;98397.63;;;5.07;100.00
28008;BME280;15333;50.010;20.020;2023-11-19T11:49:05;98382.06;;;4.87;100.00
28008;BME280;15333;50.010;20.020;2023-11-19T11:52:07;98391.50;;;4.77;100.00
28008;BME280;15333;50.010;20.020;2023-11-19T11:55:08;98392.66;;;4.57;100.00
28008;BME280;15333;50.010;20.020;2023-11-19T11:58:10;98395.81;;;4.64;100.00
28008;BME280;15333;50.010;20.020;2023-11-19T12:01:15;98388.78;;;4.63;100.00
28008;BME280;15333;50.010;20.020;2023-11-19T12:04:21;98389.88;;;4.45;100.00
28008;BME280;15333;50.010;20.020;2023-11-19T12:07:23;98385.63;;;4.56;100.00
28008;BME280;15333;50.010;20.020;2023-11-19T12:10:25;98373.97;;;4.45;100.00
28008;BME280;15333;50.010;20.020;2023-11-19T12:14:02;98381.19;;;4.11;100.00
28008;BME280;15333;50.010;20.020;2023-11-19T12:20:34;98365.22;;;3.81;87.05
28008;BME280;15333;50.010;20.020;2023-11-19T12:23:45;98354.84;;;3.77;87.14
28008;BME280;15333;50.010;20.020;2023-11-19T12:26:48;98356.13;;;3.70;88.29
28008;BME280;15333;50.010;20.020;2023-11-19T12:29:50;98361.50;;;3.52;89.17
28008;BME280;15333;50.010;20.020;2023-11-19T12:32:52;98349.69;;;3.42;90.50
28008;BME280;15333;50.010;20.020;2023-11-19T12:35:56;98338.94;;;3.30;90.73
28008;BME280;15333;50.010;20.020;2023-11-19T12:38:58;98338.41;;;3.23;90.23
28008;BME280;15333;50.010;20.020;2023-11-19T12:41:59;98320.19;;;3.01;90.55
28008;BME280;15333;50.010;20.020;2023-11-19T12:44:59;98325.22;;;3.06;90.21
28008;BME280;15333;50.010;20.020;2023-11-19T12:48:07;98323.53;;;3.05;90.46
28008;BME280;15333;50.010;20.020;2023-11-19T12:51:10;98320.78;;;2.73;90.29
28008;BME280;15333;50.010;20.020;2023-11-19T12:54:11;98321.63;;;2.57;90.19
28008;BME280;15333;50.010;20.020;2023-11-19T12:57:12;98323.25;;;2.42;89.29
28008;BME280;15333;50.010;20.020;2023-11-19T13:00:24;98313.00;;;2.36;88.48
28008;BME280;15333;50.010;20.020;2023-11-19T13:03:33;98312.84;;;2.39;87.93
28008;BME280;15333;50.010;20.020;2023-11-19T13:06:35;98307.59;;;2.39;87.40
28008;BME280;15333;50.010;20.020;2023-11-19T13:09:35;98291.34;;;2.29;87.24
28008;BME280;15333;50.010;20.020;2023-11-19T13:12:36;98287.69;;;2.32;87.04
28008;BME280;15333;50.010;20.020;2023-11-19T13:15:37;98295.38;;;2.36;87.45
28008;BME280;15333;50.010;20.020;2023-11-19T13:18:38;98291.50;;;2.44;87.40
28008;BME280;15333;50.010;20.020;2023-11-19T13:21:39;98281.00;;;2.42;87.29
28008;BME280;15333;50.010;20.020;2023-11-19T13:24:41;98278.38;;;2.25;86.96
28008;BME280;15333;50.010;20.020;2023-11-19T13:27:45;98278.06;;;2.31;86.18
28008;BME280;15333;50.010;20.020;2023-11-19T13:30:47;98281.22;;;2.20;86.07
28008;BME280;15333;50.010;20.020;2023-11-19T13:33:47;98274.63;;;2.29;85.77
28008;BME280;15333;50.010;20.020;2023-11-19T13:36:51;98271.25;;;2.27;84.98
28008;BME280;15333;50.010;20.020;2023-11-19T13:39:51;98263.75;;;2.35;85.44
28008;BME280;15333;50.010;20.020;2023-11-19T13:42:52;98261.91;;;2.37;84.47
28008;BME280;15333;50.010;20.020;2023-11-19T13:45:56;98271.22;;;2.44;84.63
28008;BME280;15333;50.010;20.020;2023-11-19T13:48:59;98265.34;;;2.39;85.57
28008;BME280;15333;50.010;20.020;2023-11-19T13:51:59;98263.47;;;2.41;85.61
28008;BME280;15333;50.010;20.020;2023-11-19T13:55:00;98260.19;;;2.36;84.84
28008;BME280;15333;50.010;20.020;2023-11-19T13:58:01;98257.22;;;2.42;84.50
28008;BME280;15333;50.010;20.020;2023-11-19T14:01:02;98259.13;;;2.40;84.50
28008;BME280;15333;50.010;20.020;2023-11-19T14:04:03;98257.88;;;2.30;84.29
28008;BME280;15333;50.010;20.020;2023-11-19T14:07:04;98253.75;;;2.24;83.71
28008;BME280;15333;50.010;20.020;2023-11-19T14:10:05;98258.44;;;2.19;82.46
28008;BME280;15333;50.010;20.020;2023-11-19T14:13:07;98254.69;;;2.23;80.25
28008;BME280;15333;50.010;20.020;2023-11-19T14:16:08;98255.84;;;2.18;77.94
28008;BME280;15333;50.010;20.020;2023-11-19T14:19:09;98248.56;;;2.23;76.88
28008;BME280;15333;50.010;20.020;2023-11-19T14:22:10;98253.84;;;2.23;77.11
28008;BME280;15333;50.010;20.020;2023-11-19T14:25:12;98255.84;;;2.18;76.78
28008;BME280;15333;50.010;20.020;2023-11-19T14:28:13;98243.59;;;2.17;75.91
28008;BME280;15333;50.010;20.020;2023-11-19T14:31:14;98246.38;;;2.31;75.29
28008;BME280;15333;50.010;20.020;2023-11-19T14:34:14;98233.09;;;2.32;74.05
28008;BME280;15333;50.010;20.020;2023-11-19T14:37:15;98247.00;;;2.19;74.53
28008;BME280;15333;50.010;20.020;2023-11-19T14:40:16;98241.56;;;2.22;73.65
28008;BME280;15333;50.010;20.020;2023-11-19T14:43:17;98234.44;;;2.24;72.92
28008;BME280;15333;50.010;20.020;2023-11-19T14:46:18;98234.56;;;2.21;72.17
28008;BME280;15333;50.010;20.020;2023-11-19T14:49:19;98236.28;;;2.22;71.77
28008;BME280;15333;50.010;20.020;2023-11-19T14:52:20;98230.31;;;2.18;70.79
28008;BME280;15333;50.010;20.020;2023-11-19T14:55:21;98234.09;;;2.30;70.20
28008;BME280;15333;50.010;20.020;2023-11-19T14:58:21;98226.97;;;2.32;69.57
28008;BME280;15333;50.010;20.020;2023-11-19T15:01:22;98228.28;;;2.23;69.26
28008;BME280;15333;50.010;20.020;2023-11-19T15:04:23;98217.41;;;2.29;69.59
28008;BME280;15333;50.010;20.020;2023-11-19T15:07:24;98215.88;;;2.25;69.40
28008;BME280;15333;50.010;20.020;2023-11-19T15:10:25;98208.81;;;2.26;68.91
28008;BME280;15333;50.010;20.020;2023-11-19T15:13:26;98208.72;;;2.27;68.82
28008;BME280;15333;50.010;20.020;2023-11-19T15:16:26;98204.13;;;2.31;68.88
28008;BME280;15333;50.010;20.020;2023-11-19T15:19:32;98213.84;;;2.30;68.45
28008;BME280;15333;50.010;20.020;2023-11-19T15:22:33;98203.66;;;2.40;68.28
28008;BME280;15333;50.010;20.020;2023-11-19T15:25:34;98204.00;;;2.34;68.68
28008;BME280;15333;50.010;20.020;2023-11-19T15:28:37;98203.59;;;2.24;67.69
28008;BME280;15333;50.010;20.020;2023-11-19T15:31:38;98205.38;;;2.24;68.10
28008;BME280;15333;50.010;20.020;2023-11-19T15:34:38;98199.47;;;2.36;67.12
28008;BME280;15333;50.010;20.020;2023-11-19T15:37:42;98195.81;;;2.39;66.92
28008;BME280;15333;50.010;20.020;2023-11-19T15:40:44;98196.69;;;2.39;66.90
28008;BME280;15333;50.010;20.020;2023-11-19T15:43:46;98186.78;;;2.43;67.04
28008;BME280;15333;50.010;20.020;2023-11-19T15:46:46;98182.81;;;2.51;66.97
28008;BME280;15333;50.010;20.020;2023-11-19T15:49:47;98190.94;;;2.64;67.45
28008;BME280;15333;50.010;20.020;2023-11-19T15:52:49;98188.41;;;2.62;67.47
28008;BME280;15333;50.010;20.020;2023-11-19T15:55:50;98183.88;;;2.64;66.83
28008;BME280;15333;50.010;20.020;2023-11-19T15:58:53;98188.41;;;2.62;67.34
28008;BME280;15333;50.010;20.020;2023-11-19T16:01:54;98181.91;;;2.52;66.89
28008;BME280;15333;50.010;20.020;2023-11-19T16:04:55;98168.53;;;2.55;67.08
28008;BME280;15333;50.010;20.020;2023-11-19T16:07:56;98178.03;;;2.75;67.25
28008;BME280;15333;50.010;20.020;2023-11-19T16:10:56;98180.06;;;2.86;67.06
28008;BME280;15333;50.010;20.020;2023-11-19T16:13:58;98188.09;;;3.00;66.84
28008;BME280;15333;50.010;20.020;2023-11-19T16:16:59;98180.94;;;3.02;67.58